createdAt,value
2022-09-26T00:00:23.781Z,982.28
2022-09-26T00:01:23.287Z,982.28
2022-09-26T00:02:23.332Z,982.28
2022-09-26T00:03:23.139Z,982.28
2022-09-26T00:04:24.629Z,982.29
2022-09-26T00:05:23.129Z,982.29
2022-09-26T00:06:23.114Z,982.29
2022-09-26T00:07:23.181Z,982.27
2022-09-26T00:08:23.148Z,982.26
2022-09-26T00:09:23.089Z,982.24
2022-09-26T00:10:23.081Z,982.22
2022-09-26T00:11:23.088Z,982.21
2022-09-26T00:12:23.068Z,982.20
2022-09-26T00:13:23.062Z,982.19
2022-09-26T00:14:23.031Z,982.18
2022-09-26T00:15:23.026Z,982.17
2022-09-26T00:16:23.164Z,982.16
2022-09-26T00:17:23.081Z,982.14
2022-09-26T00:18:23.003Z,982.13
2022-09-26T00:19:23.039Z,982.11
2022-09-26T00:20:22.998Z,982.11
2022-09-26T00:21:22.984Z,982.10
2022-09-26T00:22:22.974Z,982.09
2022-09-26T00:23:22.953Z,982.08
2022-09-26T00:24:22.952Z,982.06
2022-09-26T00:25:22.953Z,982.05
2022-09-26T00:26:22.942Z,982.04
2022-09-26T00:27:22.964Z,982.03
2022-09-26T00:28:22.918Z,982.02
2022-09-26T00:29:22.907Z,982.01
2022-09-26T00:30:22.957Z,982.01
2022-09-26T00:31:23.024Z,982.00
2022-09-26T00:32:22.880Z,982.00
2022-09-26T00:33:22.900Z,982.00
2022-09-26T00:34:22.863Z,982.01
2022-09-26T00:35:22.856Z,982.01
2022-09-26T00:36:29.763Z,982.02
2022-09-26T00:37:23.843Z,982.02
2022-09-26T00:38:22.828Z,982.01
2022-09-26T00:39:22.819Z,982.01
2022-09-26T00:40:22.830Z,982.00
2022-09-26T00:41:22.799Z,982.00
2022-09-26T00:42:22.822Z,982.00
2022-09-26T00:43:22.800Z,982.00
2022-09-26T00:44:22.780Z,981.99
2022-09-26T00:45:22.771Z,981.99
2022-09-26T00:46:22.814Z,981.97
2022-09-26T00:47:22.852Z,981.96
2022-09-26T00:48:22.769Z,981.96
2022-09-26T00:49:22.735Z,981.96
2022-09-26T00:50:22.723Z,981.95
2022-09-26T00:51:22.712Z,981.96
2022-09-26T00:52:22.716Z,981.96
2022-09-26T00:53:22.718Z,981.95
2022-09-26T00:54:22.764Z,981.94
2022-09-26T00:55:22.676Z,981.94
2022-09-26T00:56:22.673Z,981.94
2022-09-26T00:57:22.661Z,981.93
2022-09-26T00:58:22.663Z,981.91
2022-09-26T00:59:22.667Z,981.90
2022-09-26T01:00:22.665Z,981.88
2022-09-26T01:01:22.730Z,981.86
2022-09-26T01:02:22.716Z,981.84
2022-09-26T01:03:22.611Z,981.82
2022-09-26T01:04:22.628Z,981.80
2022-09-26T01:05:22.601Z,981.79
2022-09-26T01:06:22.615Z,981.77
2022-09-26T01:07:22.573Z,981.76
2022-09-26T01:08:22.559Z,981.75
2022-09-26T01:09:22.559Z,981.75
2022-09-26T01:10:22.537Z,981.74
2022-09-26T01:11:22.567Z,981.73
2022-09-26T01:12:22.523Z,981.72
2022-09-26T01:13:22.520Z,981.71
2022-09-26T01:14:22.509Z,981.70
2022-09-26T01:15:22.510Z,981.69
2022-09-26T01:16:22.575Z,981.68
2022-09-26T01:17:22.514Z,981.67
2022-09-26T01:18:22.507Z,981.65
2022-09-26T01:19:22.492Z,981.64
2022-09-26T01:20:22.465Z,981.62
2022-09-26T01:21:22.456Z,981.60
2022-09-26T01:22:22.444Z,981.59
2022-09-26T01:23:22.462Z,981.59
2022-09-26T01:24:22.424Z,981.58
2022-09-26T01:25:22.416Z,981.58
2022-09-26T01:26:22.407Z,981.59
2022-09-26T01:27:22.404Z,981.58
2022-09-26T01:28:22.395Z,981.57
2022-09-26T01:29:22.857Z,981.55
2022-09-26T01:30:22.384Z,981.54
2022-09-26T01:31:22.444Z,981.53
2022-09-26T01:32:22.378Z,981.52
2022-09-26T01:33:22.346Z,981.51
2022-09-26T01:34:22.331Z,981.50
2022-09-26T01:35:22.348Z,981.50
2022-09-26T01:36:22.314Z,981.49
2022-09-26T01:37:22.326Z,981.47
2022-09-26T01:38:22.381Z,981.46
2022-09-26T01:39:22.293Z,981.45
2022-09-26T01:40:22.411Z,981.45
2022-09-26T01:41:22.297Z,981.45
2022-09-26T01:42:22.278Z,981.45
2022-09-26T01:43:22.308Z,981.45
2022-09-26T01:44:22.253Z,981.44
2022-09-26T01:45:22.260Z,981.45
2022-09-26T01:46:22.293Z,981.44
2022-09-26T01:47:22.253Z,981.44
2022-09-26T01:48:22.209Z,981.44
2022-09-26T01:49:22.213Z,981.44
2022-09-26T01:50:22.294Z,981.42
2022-09-26T01:51:22.184Z,981.42
2022-09-26T01:52:22.210Z,981.42
2022-09-26T01:53:22.183Z,981.42
2022-09-26T01:54:22.181Z,981.41
2022-09-26T01:55:22.160Z,981.40
2022-09-26T01:56:22.139Z,981.39
2022-09-26T01:57:22.167Z,981.38
2022-09-26T01:58:22.129Z,981.38
2022-09-26T01:59:22.120Z,981.37
2022-09-26T02:00:22.146Z,981.35
2022-09-26T02:01:22.189Z,981.34
2022-09-26T02:02:22.215Z,981.34
2022-09-26T02:03:22.089Z,981.31
2022-09-26T02:04:22.096Z,981.29
2022-09-26T02:05:22.096Z,981.28
2022-09-26T02:06:22.079Z,981.25
2022-09-26T02:07:22.067Z,981.24
2022-09-26T02:08:22.045Z,981.23
2022-09-26T02:09:22.040Z,981.21
2022-09-26T02:10:22.032Z,981.21
2022-09-26T02:11:22.046Z,981.19
2022-09-26T02:12:22.032Z,981.18
2022-09-26T02:13:22.014Z,981.17
2022-09-26T02:14:22.005Z,981.15
2022-09-26T02:15:21.993Z,981.14
2022-09-26T02:16:22.076Z,981.13
2022-09-26T02:17:21.983Z,981.13
2022-09-26T02:18:21.959Z,981.13
2022-09-26T02:19:21.954Z,981.13
2022-09-26T02:20:21.933Z,981.11
2022-09-26T02:21:21.925Z,981.10
2022-09-26T02:22:21.955Z,981.08
2022-09-26T02:23:21.905Z,981.07
2022-09-26T02:24:21.898Z,981.04
2022-09-26T02:25:21.887Z,981.02
2022-09-26T02:26:21.875Z,981.02
2022-09-26T02:27:21.883Z,981.01
2022-09-26T02:28:21.912Z,981.01
2022-09-26T02:29:21.868Z,981.01
2022-09-26T02:30:21.859Z,981.00
2022-09-26T02:31:21.890Z,980.99
2022-09-26T02:32:21.822Z,980.98
2022-09-26T02:33:21.840Z,980.98
2022-09-26T02:34:21.843Z,980.96
2022-09-26T02:35:21.810Z,980.95
2022-09-26T02:36:21.816Z,980.94
2022-09-26T02:37:21.807Z,980.94
2022-09-26T02:38:21.813Z,980.93
2022-09-26T02:39:21.828Z,980.92
2022-09-26T02:40:21.809Z,980.91
2022-09-26T02:41:21.762Z,980.91
2022-09-26T02:42:21.750Z,980.90
2022-09-26T02:43:21.731Z,980.88
2022-09-26T02:44:21.743Z,980.87
2022-09-26T02:45:21.750Z,980.86
2022-09-26T02:46:21.789Z,980.85
2022-09-26T02:47:21.696Z,980.84
2022-09-26T02:48:21.725Z,980.84
2022-09-26T02:49:21.678Z,980.83
2022-09-26T02:50:21.695Z,980.82
2022-09-26T02:51:22.337Z,980.82
2022-09-26T02:52:21.754Z,980.83
2022-09-26T02:53:21.647Z,980.84
2022-09-26T02:54:21.655Z,980.84
2022-09-26T02:55:21.649Z,980.83
2022-09-26T02:56:21.651Z,980.83
2022-09-26T02:57:21.623Z,980.83
2022-09-26T02:58:21.610Z,980.82
2022-09-26T02:59:21.604Z,980.79
2022-09-26T03:00:21.594Z,980.78
2022-09-26T03:01:21.655Z,980.76
2022-09-26T03:02:21.594Z,980.74
2022-09-26T03:03:21.674Z,980.73
2022-09-26T03:04:21.620Z,980.72
2022-09-26T03:05:21.559Z,980.71
2022-09-26T03:06:21.562Z,980.70
2022-09-26T03:07:21.538Z,980.68
2022-09-26T03:08:21.550Z,980.65
2022-09-26T03:09:21.524Z,980.64
2022-09-26T03:10:21.515Z,980.61
2022-09-26T03:11:21.510Z,980.60
2022-09-26T03:12:21.504Z,980.59
2022-09-26T03:13:21.504Z,980.57
2022-09-26T03:14:21.573Z,980.55
2022-09-26T03:15:21.465Z,980.54
2022-09-26T03:16:21.517Z,980.53
2022-09-26T03:17:21.452Z,980.50
2022-09-26T03:18:21.445Z,980.46
2022-09-26T03:19:21.445Z,980.44
2022-09-26T03:20:21.451Z,980.43
2022-09-26T03:21:21.428Z,980.43
2022-09-26T03:22:21.425Z,980.42
2022-09-26T03:23:21.423Z,980.40
2022-09-26T03:24:21.401Z,980.39
2022-09-26T03:25:21.398Z,980.37
2022-09-26T03:26:21.854Z,980.36
2022-09-26T03:27:21.384Z,980.34
2022-09-26T03:28:21.369Z,980.35
2022-09-26T03:29:21.353Z,980.33
2022-09-26T03:30:21.355Z,980.33
2022-09-26T03:31:21.410Z,980.33
2022-09-26T03:32:21.325Z,980.31
2022-09-26T03:33:21.329Z,980.31
2022-09-26T03:34:21.321Z,980.31
2022-09-26T03:35:21.311Z,980.30
2022-09-26T03:36:21.311Z,980.29
2022-09-26T03:37:21.357Z,980.27
2022-09-26T03:38:21.317Z,980.26
2022-09-26T03:39:21.284Z,980.28
2022-09-26T03:40:21.305Z,980.28
2022-09-26T03:41:21.255Z,980.28
2022-09-26T03:42:21.246Z,980.27
2022-09-26T03:43:21.261Z,980.26
2022-09-26T03:44:21.229Z,980.23
2022-09-26T03:45:21.293Z,980.22
2022-09-26T03:46:21.223Z,980.21
2022-09-26T03:47:21.219Z,980.18
2022-09-26T03:48:21.201Z,980.16
2022-09-26T03:49:21.216Z,980.14
2022-09-26T03:50:21.187Z,980.13
2022-09-26T03:51:21.183Z,980.12
2022-09-26T03:52:21.173Z,980.09
2022-09-26T03:53:21.159Z,980.06
2022-09-26T03:54:21.144Z,980.05
2022-09-26T03:55:21.152Z,980.04
2022-09-26T03:56:21.128Z,980.05
2022-09-26T03:57:21.124Z,980.07
2022-09-26T03:58:21.129Z,980.07
2022-09-26T03:59:21.108Z,980.05
2022-09-26T04:00:21.099Z,980.04
2022-09-26T04:01:21.222Z,980.03
2022-09-26T04:02:21.206Z,980.02
2022-09-26T04:03:21.083Z,980.01
2022-09-26T04:04:21.072Z,980.01
2022-09-26T04:05:21.063Z,980.00
2022-09-26T04:06:21.218Z,979.97
2022-09-26T04:07:21.067Z,979.92
2022-09-26T04:08:21.042Z,979.86
2022-09-26T04:09:21.250Z,979.83
2022-09-26T04:10:21.028Z,979.85
2022-09-26T04:11:21.004Z,979.86
2022-09-26T04:12:21.000Z,979.85
2022-09-26T04:13:49.450Z,979.84
2022-09-26T04:14:21.976Z,979.83
2022-09-26T04:15:20.977Z,979.83
2022-09-26T04:16:21.050Z,979.80
2022-09-26T04:17:21.241Z,979.79
2022-09-26T04:18:20.954Z,979.77
2022-09-26T04:19:20.985Z,979.77
2022-09-26T04:20:20.950Z,979.77
2022-09-26T04:21:20.944Z,979.78
2022-09-26T04:22:20.961Z,979.78
2022-09-26T04:23:20.919Z,979.77
2022-09-26T04:24:20.914Z,979.76
2022-09-26T04:25:20.924Z,979.74
2022-09-26T04:26:23.724Z,979.73
2022-09-26T04:27:20.878Z,979.72
2022-09-26T04:28:20.869Z,979.71
2022-09-26T04:29:20.859Z,979.68
2022-09-26T04:30:20.860Z,979.64
2022-09-26T04:31:20.950Z,979.62
2022-09-26T04:32:20.876Z,979.60
2022-09-26T04:33:20.847Z,979.58
2022-09-26T04:34:26.258Z,979.56
2022-09-26T04:35:21.825Z,979.55
2022-09-26T04:36:20.819Z,979.54
2022-09-26T04:37:20.832Z,979.54
2022-09-26T04:38:21.337Z,979.54
2022-09-26T04:39:20.779Z,979.53
2022-09-26T04:40:20.839Z,979.52
2022-09-26T04:41:20.766Z,979.51
2022-09-26T04:42:20.764Z,979.50
2022-09-26T04:43:20.812Z,979.49
2022-09-26T04:44:20.786Z,979.50
2022-09-26T04:45:20.737Z,979.50
2022-09-26T04:46:22.343Z,979.50
2022-09-26T04:47:20.715Z,979.49
2022-09-26T04:48:20.706Z,979.48
2022-09-26T04:49:20.721Z,979.48
2022-09-26T04:50:20.730Z,979.47
2022-09-26T04:51:20.681Z,979.48
2022-09-26T04:52:20.682Z,979.47
2022-09-26T04:53:20.671Z,979.48
2022-09-26T04:54:20.704Z,979.47
2022-09-26T04:55:20.695Z,979.47
2022-09-26T04:56:20.633Z,979.46
2022-09-26T04:57:20.637Z,979.45
2022-09-26T04:58:20.622Z,979.43
2022-09-26T04:59:20.609Z,979.42
2022-09-26T05:00:20.626Z,979.41
2022-09-26T05:01:20.674Z,979.40
2022-09-26T05:02:20.641Z,979.39
2022-09-26T05:03:20.580Z,979.37
2022-09-26T05:04:25.214Z,979.37
2022-09-26T05:05:21.591Z,979.37
2022-09-26T05:06:20.571Z,979.34
2022-09-26T05:07:20.555Z,979.32
2022-09-26T05:08:20.530Z,979.31
2022-09-26T05:09:20.528Z,979.28
2022-09-26T05:10:20.524Z,979.27
2022-09-26T05:11:20.520Z,979.28
2022-09-26T05:12:20.729Z,979.30
2022-09-26T05:13:20.491Z,979.30
2022-09-26T05:14:20.484Z,979.30
2022-09-26T05:15:20.480Z,979.29
2022-09-26T05:16:20.518Z,979.28
2022-09-26T05:17:20.500Z,979.28
2022-09-26T05:18:20.483Z,979.29
2022-09-26T05:20:32.696Z,979.26
2022-09-26T05:21:32.734Z,979.24
2022-09-26T05:22:32.702Z,979.23
2022-09-26T05:23:32.700Z,979.21
2022-09-26T05:24:32.683Z,979.20
2022-09-26T05:25:32.750Z,979.19
2022-09-26T05:26:32.684Z,979.18
2022-09-26T05:27:32.693Z,979.19
2022-09-26T05:28:32.677Z,979.20
2022-09-26T05:29:32.651Z,979.20
2022-09-26T05:30:32.660Z,979.21
2022-09-26T05:31:32.795Z,979.20
2022-09-26T05:32:32.667Z,979.19
2022-09-26T05:33:32.686Z,979.19
2022-09-26T05:34:32.623Z,979.17
2022-09-26T05:35:32.605Z,979.16
2022-09-26T05:36:32.604Z,979.14
2022-09-26T05:37:32.593Z,979.13
2022-09-26T05:38:32.671Z,979.12
2022-09-26T05:39:32.611Z,979.10
2022-09-26T05:40:32.626Z,979.10
2022-09-26T05:41:32.567Z,979.09
2022-09-26T05:42:32.595Z,979.07
2022-09-26T05:43:32.563Z,979.06
2022-09-26T05:44:32.557Z,979.05
2022-09-26T05:45:32.524Z,979.04
2022-09-26T05:46:32.614Z,979.03
2022-09-26T05:47:32.539Z,979.02
2022-09-26T05:48:32.507Z,979.02
2022-09-26T05:49:32.480Z,979.02
2022-09-26T05:50:32.531Z,979.01
2022-09-26T05:51:32.470Z,978.99
2022-09-26T05:52:32.468Z,978.98
2022-09-26T05:53:32.477Z,978.97
2022-09-26T05:54:32.458Z,978.97
2022-09-26T05:55:32.459Z,978.95
2022-09-26T05:56:32.486Z,978.95
2022-09-26T05:57:32.448Z,978.95
2022-09-26T05:58:32.489Z,978.94
2022-09-26T05:59:33.060Z,978.94
2022-09-26T06:00:32.435Z,978.93
2022-09-26T06:01:32.444Z,978.91
2022-09-26T06:02:32.474Z,978.91
2022-09-26T06:03:32.380Z,978.90
2022-09-26T06:04:32.396Z,978.90
2022-09-26T06:05:32.360Z,978.91
2022-09-26T06:06:32.392Z,978.90
2022-09-26T06:07:32.380Z,978.89
2022-09-26T06:08:32.357Z,978.89
2022-09-26T06:09:32.340Z,978.88
2022-09-26T06:10:32.377Z,978.87
2022-09-26T06:11:32.351Z,978.87
2022-09-26T06:12:32.502Z,978.86
2022-09-26T06:13:32.323Z,978.84
2022-09-26T06:14:32.294Z,978.81
2022-09-26T06:15:32.282Z,978.78
2022-09-26T06:16:32.342Z,978.78
2022-09-26T06:17:32.290Z,978.77
2022-09-26T06:18:32.279Z,978.77
2022-09-26T06:19:32.245Z,978.77
2022-09-26T06:20:32.245Z,978.75
2022-09-26T06:21:32.235Z,978.75
2022-09-26T06:22:32.361Z,978.75
2022-09-26T06:23:32.223Z,978.74
2022-09-26T06:24:32.289Z,978.70
2022-09-26T06:25:32.203Z,978.68
2022-09-26T06:26:32.231Z,978.66
2022-09-26T06:27:33.101Z,978.64
2022-09-26T06:28:32.175Z,978.64
2022-09-26T06:29:32.163Z,978.67
2022-09-26T06:30:32.186Z,978.66
2022-09-26T06:31:32.195Z,978.64
2022-09-26T06:32:32.142Z,978.62
2022-09-26T06:33:33.511Z,978.61
2022-09-26T06:34:32.155Z,978.60
2022-09-26T06:35:32.118Z,978.60
2022-09-26T06:36:32.160Z,978.58
2022-09-26T06:37:32.150Z,978.57
2022-09-26T06:38:32.120Z,978.55
2022-09-26T06:39:32.081Z,978.53
2022-09-26T06:40:32.159Z,978.52
2022-09-26T06:41:32.200Z,978.51
2022-09-26T06:42:32.071Z,978.49
2022-09-26T06:43:32.057Z,978.49
2022-09-26T06:44:32.040Z,978.46
2022-09-26T06:45:32.042Z,978.43
2022-09-26T06:46:32.092Z,978.43
2022-09-26T06:47:32.052Z,978.42
2022-09-26T06:48:32.160Z,978.43
2022-09-26T06:49:32.003Z,978.42
2022-09-26T06:50:31.993Z,978.40
2022-09-26T06:51:32.007Z,978.40
2022-09-26T06:52:31.979Z,978.36
2022-09-26T06:53:31.991Z,978.37
2022-09-26T06:54:31.989Z,978.37
2022-09-26T06:55:31.957Z,978.37
2022-09-26T06:56:31.976Z,978.34
2022-09-26T06:57:32.008Z,978.33
2022-09-26T06:58:31.951Z,978.34
2022-09-26T06:59:31.933Z,978.34
2022-09-26T07:00:31.982Z,978.33
2022-09-26T07:01:32.011Z,978.33
2022-09-26T07:02:31.899Z,978.32
2022-09-26T07:03:31.881Z,978.34
2022-09-26T07:04:31.898Z,978.34
2022-09-26T07:05:31.859Z,978.34
2022-09-26T07:06:31.857Z,978.33
2022-09-26T07:07:31.847Z,978.32
2022-09-26T07:09:00.526Z,978.30
2022-09-26T07:09:32.906Z,978.28
2022-09-26T07:10:31.832Z,978.27
2022-09-26T07:11:41.964Z,978.26
2022-09-26T07:12:32.814Z,978.25
2022-09-26T07:13:31.802Z,978.27
2022-09-26T07:14:31.788Z,978.27
2022-09-26T07:15:31.823Z,978.24
2022-09-26T07:16:32.033Z,978.24
2022-09-26T07:17:31.764Z,978.25
2022-09-26T07:18:31.751Z,978.23
2022-09-26T07:19:31.749Z,978.22
2022-09-26T07:20:31.741Z,978.22
2022-09-26T07:21:31.751Z,978.22
2022-09-26T07:22:31.731Z,978.21
2022-09-26T07:23:31.753Z,978.18
2022-09-26T07:24:31.709Z,978.16
2022-09-26T07:25:31.846Z,978.12
2022-09-26T07:26:31.695Z,978.11
2022-09-26T07:27:31.704Z,978.08
2022-09-26T07:28:31.687Z,978.08
2022-09-26T07:29:31.735Z,978.08
2022-09-26T07:30:31.774Z,978.05
2022-09-26T07:31:31.710Z,978.04
2022-09-26T07:32:31.646Z,978.04
2022-09-26T07:33:31.636Z,978.03
2022-09-26T07:34:31.630Z,978.01
2022-09-26T07:35:31.618Z,978.00
2022-09-26T07:36:31.622Z,977.99
2022-09-26T07:37:31.609Z,977.98
2022-09-26T07:38:31.587Z,977.99
2022-09-26T07:39:31.584Z,977.97
2022-09-26T07:40:31.645Z,977.97
2022-09-26T07:41:31.560Z,977.96
2022-09-26T07:42:31.657Z,977.99
2022-09-26T07:44:04.620Z,977.89
2022-09-26T07:45:32.702Z,977.86
2022-09-26T07:46:31.664Z,977.86
2022-09-26T07:47:31.512Z,977.89
2022-09-26T07:48:31.503Z,977.83
2022-09-26T07:49:31.565Z,977.83
2022-09-26T07:50:31.499Z,977.77
2022-09-26T07:51:31.499Z,977.77
2022-09-26T07:52:31.501Z,977.79
2022-09-26T07:53:31.471Z,977.72
2022-09-26T07:54:32.973Z,977.75
2022-09-26T07:55:31.482Z,977.69
2022-09-26T07:56:31.453Z,977.69
2022-09-26T07:57:31.466Z,977.70
2022-09-26T07:58:31.441Z,977.70
2022-09-26T07:59:31.415Z,977.75
2022-09-26T08:00:31.417Z,977.66
2022-09-26T08:01:31.479Z,977.70
2022-09-26T08:02:31.532Z,977.63
2022-09-26T08:03:31.443Z,977.55
2022-09-26T08:04:31.400Z,977.66
2022-09-26T08:05:31.443Z,977.60
2022-09-26T08:06:31.370Z,977.54
2022-09-26T08:07:31.466Z,977.55
2022-09-26T08:08:31.365Z,977.49
2022-09-26T08:09:31.458Z,977.53
2022-09-26T08:10:31.342Z,977.46
2022-09-26T08:11:31.396Z,977.42
2022-09-26T08:12:31.318Z,977.42
2022-09-26T08:13:31.312Z,977.43
2022-09-26T08:14:31.339Z,977.43
2022-09-26T08:15:31.293Z,977.44
2022-09-26T08:16:31.339Z,977.45
2022-09-26T08:17:31.326Z,977.36
2022-09-26T08:18:31.272Z,977.31
2022-09-26T08:19:31.284Z,977.31
2022-09-26T08:20:32.313Z,977.39
2022-09-26T08:21:31.261Z,977.27
2022-09-26T08:22:31.237Z,977.29
2022-09-26T08:23:31.238Z,977.30
2022-09-26T08:24:31.234Z,977.32
2022-09-26T08:25:31.245Z,977.41
2022-09-26T08:26:31.200Z,977.27
2022-09-26T08:27:31.203Z,977.33
2022-09-26T08:28:31.183Z,977.23
2022-09-26T08:29:31.188Z,977.26
2022-09-26T08:30:31.169Z,977.18
2022-09-26T08:31:31.296Z,977.14
2022-09-26T08:32:31.169Z,977.12
2022-09-26T08:33:31.197Z,977.09
2022-09-26T08:34:31.145Z,977.03
2022-09-26T08:35:31.125Z,977.06
2022-09-26T08:36:31.120Z,977.02
2022-09-26T08:37:31.213Z,976.99
2022-09-26T08:38:31.122Z,977.02
2022-09-26T08:39:33.403Z,976.99
2022-09-26T08:40:31.175Z,976.93
2022-09-26T08:41:31.091Z,976.96
2022-09-26T08:42:31.078Z,976.96
2022-09-26T08:43:31.119Z,976.96
2022-09-26T08:44:31.052Z,977.02
2022-09-26T08:45:31.050Z,976.96
2022-09-26T08:46:31.096Z,976.94
2022-09-26T08:47:31.071Z,977.02
2022-09-26T08:48:31.031Z,976.97
2022-09-26T08:49:31.044Z,976.97
2022-09-26T08:50:31.020Z,976.92
2022-09-26T08:51:31.008Z,976.92
2022-09-26T08:52:30.986Z,976.88
2022-09-26T08:53:31.008Z,976.90
2022-09-26T08:54:31.016Z,976.88
2022-09-26T08:55:30.992Z,976.88
2022-09-26T08:56:30.963Z,976.90
2022-09-26T08:57:30.975Z,977.02
2022-09-26T08:58:30.955Z,977.02
2022-09-26T08:59:31.000Z,977.00
2022-09-26T09:00:30.957Z,977.04
2022-09-26T09:01:31.014Z,977.03
2022-09-26T09:02:30.980Z,977.02
2022-09-26T09:03:30.911Z,977.03
2022-09-26T09:04:30.900Z,977.04
2022-09-26T09:05:30.915Z,977.06
2022-09-26T09:06:30.902Z,977.10
2022-09-26T09:07:30.974Z,976.95
2022-09-26T09:08:30.859Z,976.91
2022-09-26T09:09:30.851Z,976.93
2022-09-26T09:10:30.845Z,976.93
2022-09-26T09:11:30.872Z,977.02
2022-09-26T09:12:32.387Z,977.02
2022-09-26T09:13:30.830Z,976.93
2022-09-26T09:14:30.815Z,976.92
2022-09-26T09:15:30.805Z,976.81
2022-09-26T09:16:30.874Z,976.83
2022-09-26T09:17:30.841Z,976.80
2022-09-26T09:18:30.809Z,976.78
2022-09-26T09:19:30.782Z,976.86
2022-09-26T09:20:30.773Z,976.77
2022-09-26T09:21:30.969Z,976.83
2022-09-26T09:22:30.761Z,976.77
2022-09-26T09:23:30.768Z,976.84
2022-09-26T09:24:30.761Z,976.80
2022-09-26T09:25:30.743Z,976.77
2022-09-26T09:28:31.740Z,976.72
2022-09-26T09:29:30.709Z,976.65
2022-09-26T09:30:30.720Z,976.63
2022-09-26T09:31:30.804Z,976.66
2022-09-26T09:32:30.678Z,976.66
2022-09-26T09:33:30.668Z,976.74
2022-09-26T09:34:30.671Z,976.66
2022-09-26T09:35:30.776Z,976.65
2022-09-26T09:36:30.665Z,976.61
2022-09-26T09:37:30.641Z,976.55
2022-09-26T09:38:30.619Z,976.54
2022-09-26T09:39:30.618Z,976.52
2022-09-26T09:40:30.651Z,976.50
2022-09-26T09:41:30.662Z,976.49
2022-09-26T09:42:30.586Z,976.47
2022-09-26T09:43:30.570Z,976.49
2022-09-26T09:44:30.716Z,976.39
2022-09-26T09:45:30.564Z,976.44
2022-09-26T09:46:30.616Z,976.51
2022-09-26T09:47:30.572Z,976.51
2022-09-26T09:48:30.537Z,976.47
2022-09-26T09:49:30.563Z,976.39
2022-09-26T09:50:30.523Z,976.42
2022-09-26T09:51:33.191Z,976.50
2022-09-26T09:52:31.560Z,976.42
2022-09-26T09:53:30.498Z,976.41
2022-09-26T09:54:30.477Z,976.37
2022-09-26T09:55:30.481Z,976.34
2022-09-26T09:56:30.491Z,976.23
2022-09-26T09:57:30.469Z,976.29
2022-09-26T09:58:30.474Z,976.41
2022-09-26T09:59:30.457Z,976.37
2022-09-26T10:00:30.454Z,976.31
2022-09-26T10:01:30.438Z,976.31
2022-09-26T10:02:30.525Z,976.21
2022-09-26T10:03:30.420Z,976.15
2022-09-26T10:04:30.406Z,976.28
2022-09-26T10:05:30.466Z,976.18
2022-09-26T10:06:44.272Z,976.27
2022-09-26T10:07:31.517Z,976.27
2022-09-26T10:08:30.374Z,976.21
2022-09-26T10:09:39.353Z,976.18
2022-09-26T10:10:31.400Z,976.23
2022-09-26T10:11:30.368Z,976.10
2022-09-26T10:12:30.359Z,976.16
2022-09-26T10:13:30.376Z,976.11
2022-09-26T10:14:30.394Z,976.12
2022-09-26T10:15:30.353Z,976.20
2022-09-26T10:16:30.386Z,976.05
2022-09-26T10:17:30.318Z,976.12
2022-09-26T10:18:30.311Z,976.03
2022-09-26T10:19:30.313Z,976.13
2022-09-26T10:20:30.283Z,976.20
2022-09-26T10:21:30.303Z,976.16
2022-09-26T10:22:30.275Z,976.15
2022-09-26T10:23:30.335Z,976.07
2022-09-26T10:24:30.252Z,976.06
2022-09-26T10:25:30.249Z,975.98
2022-09-26T10:26:31.531Z,976.05
2022-09-26T10:27:30.253Z,976.06
2022-09-26T10:28:30.244Z,976.07
2022-09-26T10:29:30.229Z,975.96
2022-09-26T10:30:30.234Z,975.90
2022-09-26T10:31:30.280Z,975.99
2022-09-26T10:32:30.221Z,976.07
2022-09-26T10:33:30.182Z,976.00
2022-09-26T10:34:30.180Z,975.97
2022-09-26T10:35:30.209Z,976.05
2022-09-26T10:36:30.155Z,976.13
2022-09-26T10:37:30.156Z,976.04
2022-09-26T10:38:30.169Z,976.11
2022-09-26T10:39:30.136Z,976.08
2022-09-26T10:40:30.190Z,976.00
2022-09-26T10:41:30.143Z,975.93
2022-09-26T10:42:32.472Z,975.98
2022-09-26T10:43:30.101Z,975.99
2022-09-26T10:44:30.284Z,976.07
2022-09-26T10:45:30.096Z,976.09
2022-09-26T10:46:30.144Z,976.05
2022-09-26T10:47:30.076Z,975.97
2022-09-26T10:48:30.069Z,975.97
2022-09-26T10:49:30.121Z,975.97
2022-09-26T10:50:30.055Z,976.04
2022-09-26T10:51:30.049Z,975.98
2022-09-26T10:52:30.044Z,976.01
2022-09-26T10:53:30.042Z,975.97
2022-09-26T10:54:30.008Z,975.91
2022-09-26T10:55:30.056Z,975.91
2022-09-26T10:56:30.003Z,975.91
2022-09-26T10:57:30.700Z,976.03
2022-09-26T10:58:30.161Z,975.99
2022-09-26T10:59:30.042Z,975.99
2022-09-26T11:00:29.960Z,975.86
2022-09-26T11:01:30.042Z,975.84
2022-09-26T11:02:29.953Z,975.78
2022-09-26T11:03:29.947Z,975.83
2022-09-26T11:04:29.952Z,975.78
2022-09-26T11:05:29.932Z,975.93
2022-09-26T11:06:29.940Z,975.90
2022-09-26T11:07:29.909Z,975.82
2022-09-26T11:08:29.906Z,975.79
2022-09-26T11:09:29.897Z,975.80
2022-09-26T11:10:29.910Z,975.81
2022-09-26T11:11:29.981Z,975.78
2022-09-26T11:12:29.872Z,975.77
2022-09-26T11:13:29.858Z,975.76
2022-09-26T11:14:29.879Z,975.84
2022-09-26T11:15:29.959Z,975.71
2022-09-26T11:16:33.654Z,975.71
2022-09-26T11:17:30.831Z,975.75
2022-09-26T11:18:29.831Z,975.64
2022-09-26T11:19:29.802Z,975.73
2022-09-26T11:20:37.311Z,975.59
2022-09-26T11:21:29.847Z,975.60
2022-09-26T11:22:29.815Z,975.63
2022-09-26T11:23:29.783Z,975.62
2022-09-26T11:25:58.122Z,975.53
2022-09-26T11:26:56.792Z,975.56
2022-09-26T11:27:56.811Z,975.54
2022-09-26T11:30:23.796Z,975.69
2022-09-26T11:31:23.841Z,975.61
2022-09-26T11:32:23.795Z,975.59
2022-09-26T11:33:44.800Z,975.51
2022-09-26T11:34:23.775Z,975.49
2022-09-26T11:35:23.766Z,975.51
2022-09-26T11:36:23.767Z,975.52
2022-09-26T11:37:24.027Z,975.44
2022-09-26T11:38:23.743Z,975.49
2022-09-26T11:39:23.739Z,975.49
2022-09-26T11:40:23.746Z,975.46
2022-09-26T11:41:23.726Z,975.32
2022-09-26T11:42:23.828Z,975.33
2022-09-26T11:43:23.724Z,975.30
2022-09-26T11:44:23.686Z,975.35
2022-09-26T11:45:23.693Z,975.43
2022-09-26T11:46:23.761Z,975.28
2022-09-26T11:47:23.677Z,975.41
2022-09-26T11:48:23.708Z,975.29
2022-09-26T11:49:23.659Z,975.30
2022-09-26T11:50:23.683Z,975.39
2022-09-26T11:51:23.645Z,975.27
2022-09-26T11:52:23.658Z,975.26
2022-09-26T11:53:23.664Z,975.22
2022-09-26T11:54:23.607Z,975.25
2022-09-26T11:55:23.609Z,975.20
2022-09-26T11:56:23.598Z,975.17
2022-09-26T11:57:23.590Z,975.10
2022-09-26T11:58:23.597Z,975.20
2022-09-26T11:59:23.603Z,975.18
2022-09-26T12:00:23.572Z,975.24
2022-09-26T12:01:23.575Z,975.23
2022-09-26T12:02:23.777Z,975.17
2022-09-26T12:03:23.693Z,975.18
2022-09-26T12:04:23.566Z,975.14
2022-09-26T12:05:26.805Z,975.17
2022-09-26T12:06:23.532Z,975.19
2022-09-26T12:07:23.538Z,975.12
2022-09-26T12:08:23.498Z,975.09
2022-09-26T12:09:23.497Z,975.15
2022-09-26T12:10:23.536Z,975.09
2022-09-26T12:11:23.487Z,975.12
2022-09-26T12:12:23.486Z,975.04
2022-09-26T12:13:23.533Z,975.08
2022-09-26T12:14:23.471Z,975.08
2022-09-26T12:15:23.452Z,975.12
2022-09-26T12:16:23.498Z,975.03
2022-09-26T12:17:23.446Z,975.06
2022-09-26T12:18:23.433Z,975.05
2022-09-26T12:19:23.455Z,975.13
2022-09-26T12:20:23.440Z,975.06
2022-09-26T12:21:23.416Z,975.07
2022-09-26T12:22:23.404Z,975.08
2022-09-26T12:23:23.389Z,975.09
2022-09-26T12:24:23.375Z,975.11
2022-09-26T12:25:23.368Z,975.07
2022-09-26T12:26:23.384Z,975.06
2022-09-26T12:27:23.351Z,975.09
2022-09-26T12:28:23.358Z,975.02
2022-09-26T12:29:23.336Z,975.03
2022-09-26T12:30:23.332Z,975.02
2022-09-26T12:31:23.395Z,974.96
2022-09-26T12:32:23.326Z,974.94
2022-09-26T12:33:23.340Z,975.00
2022-09-26T12:34:23.294Z,974.90
2022-09-26T12:35:23.290Z,974.90